sensor_id;sensor_type;location;lat;lon;timestamp;P1;durP1;ratioP1;P2;durP2;ratioP2
9667;SDS011;4872;48.316;10.650;2023-02-21T05:06:32;9.47;;;7.97;;
9667;SDS011;4872;48.316;10.650;2023-02-21T05:09:00;14.00;;;10.47;;
9667;SDS011;4872;48.316;10.650;2023-02-21T05:11:27;12.00;;;9.53;;
9667;SDS011;4872;48.316;10.650;2023-02-21T05:13:54;14.17;;;11.67;;
9667;SDS011;4872;48.316;10.650;2023-02-21T05:16:20;13.87;;;11.80;;
9667;SDS011;4872;48.316;10.650;2023-02-21T05:18:47;13.43;;;10.93;;
9667;SDS011;4872;48.316;10.650;2023-02-21T05:21:14;12.53;;;9.87;;
9667;SDS011;4872;48.316;10.650;2023-02-21T05:23:44;11.37;;;9.67;;
9667;SDS011;4872;48.316;10.650;2023-02-21T05:26:20;15.33;;;10.03;;
9667;SDS011;4872;48.316;10.650;2023-02-21T05:28:49;10.37;;;9.17;;
9667;SDS011;4872;48.316;10.650;2023-02-21T05:31:17;11.10;;;9.60;;
9667;SDS011;4872;48.316;10.650;2023-02-21T05:33:44;12.67;;;10.80;;
9667;SDS011;4872;48.316;10.650;2023-02-21T05:36:11;10.90;;;9.43;;
9667;SDS011;4872;48.316;10.650;2023-02-21T05:38:45;11.13;;;9.80;;
9667;SDS011;4872;48.316;10.650;2023-02-21T05:41:13;11.73;;;9.30;;
9667;SDS011;4872;48.316;10.650;2023-02-21T05:43:42;11.80;;;10.13;;
9667;SDS011;4872;48.316;10.650;2023-02-21T05:46:14;13.20;;;10.00;;
9667;SDS011;4872;48.316;10.650;2023-02-21T05:48:45;10.23;;;8.63;;
9667;SDS011;4872;48.316;10.650;2023-02-21T05:51:12;8.87;;;7.50;;
9667;SDS011;4872;48.316;10.650;2023-02-21T05:53:39;9.17;;;7.97;;
9667;SDS011;4872;48.316;10.650;2023-02-21T05:56:08;10.23;;;8.20;;
9667;SDS011;4872;48.316;10.650;2023-02-21T05:58:35;12.27;;;7.77;;
9667;SDS011;4872;48.316;10.650;2023-02-21T06:01:02;10.27;;;8.23;;
9667;SDS011;4872;48.316;10.650;2023-02-21T06:03:29;9.63;;;7.30;;
9667;SDS011;4872;48.316;10.650;2023-02-21T06:05:56;10.63;;;8.87;;
9667;SDS011;4872;48.316;10.650;2023-02-21T06:08:23;11.47;;;8.33;;
9667;SDS011;4872;48.316;10.650;2023-02-21T06:10:50;10.10;;;8.30;;
9667;SDS011;4872;48.316;10.650;2023-02-21T06:13:18;12.50;;;10.17;;
9667;SDS011;4872;48.316;10.650;2023-02-21T06:15:45;12.73;;;9.07;;
9667;SDS011;4872;48.316;10.650;2023-02-21T06:18:12;12.53;;;10.00;;
9667;SDS011;4872;48.316;10.650;2023-02-21T06:20:39;11.03;;;8.77;;
9667;SDS011;4872;48.316;10.650;2023-02-21T06:23:06;10.53;;;8.80;;
9667;SDS011;4872;48.316;10.650;2023-02-21T06:25:33;11.73;;;9.40;;
9667;SDS011;4872;48.316;10.650;2023-02-21T06:28:00;11.13;;;9.23;;
9667;SDS011;4872;48.316;10.650;2023-02-21T06:30:28;13.53;;;10.70;;
9667;SDS011;4872;48.316;10.650;2023-02-21T06:32:55;12.40;;;9.73;;
9667;SDS011;4872;48.316;10.650;2023-02-21T06:35:22;13.53;;;11.20;;
9667;SDS011;4872;48.316;10.650;2023-02-21T06:37:49;12.77;;;9.60;;
9667;SDS011;4872;48.316;10.650;2023-02-21T06:40:15;11.73;;;9.87;;
9667;SDS011;4872;48.316;10.650;2023-02-21T06:42:42;12.10;;;9.33;;
9667;SDS011;4872;48.316;10.650;2023-02-21T06:45:09;12.33;;;9.23;;
9667;SDS011;4872;48.316;10.650;2023-02-21T06:47:37;9.20;;;7.83;;
9667;SDS011;4872;48.316;10.650;2023-02-21T06:50:05;11.27;;;9.23;;
9667;SDS011;4872;48.316;10.650;2023-02-21T06:52:32;11.70;;;9.30;;
9667;SDS011;4872;48.316;10.650;2023-02-21T06:54:58;12.33;;;8.40;;
9667;SDS011;4872;48.316;10.650;2023-02-21T06:57:25;9.00;;;8.10;;
9667;SDS011;4872;48.316;10.650;2023-02-21T06:59:52;11.57;;;8.53;;
9667;SDS011;4872;48.316;10.650;2023-02-21T07:02:19;10.47;;;8.43;;
9667;SDS011;4872;48.316;10.650;2023-02-21T07:04:47;10.00;;;7.90;;
9667;SDS011;4872;48.316;10.650;2023-02-21T07:07:14;9.70;;;7.90;;
9667;SDS011;4872;48.316;10.650;2023-02-21T07:09:42;12.40;;;8.33;;
9667;SDS011;4872;48.316;10.650;2023-02-21T07:12:08;10.20;;;7.93;;
9667;SDS011;4872;48.316;10.650;2023-02-21T07:14:35;10.73;;;7.90;;
9667;SDS011;4872;48.316;10.650;2023-02-21T07:17:02;11.30;;;8.03;;
9667;SDS011;4872;48.316;10.650;2023-02-21T07:19:29;9.07;;;7.07;;
9667;SDS011;4872;48.316;10.650;2023-02-21T07:21:57;8.00;;;7.07;;
9667;SDS011;4872;48.316;10.650;2023-02-21T07:24:24;10.87;;;7.27;;
9667;SDS011;4872;48.316;10.650;2023-02-21T07:26:50;10.93;;;7.77;;
9667;SDS011;4872;48.316;10.650;2023-02-21T07:29:17;8.73;;;7.13;;
9667;SDS011;4872;48.316;10.650;2023-02-21T07:31:44;8.57;;;6.63;;
9667;SDS011;4872;48.316;10.650;2023-02-21T07:34:11;9.17;;;6.43;;
9667;SDS011;4872;48.316;10.650;2023-02-21T07:36:39;8.23;;;6.87;;
9667;SDS011;4872;48.316;10.650;2023-02-21T07:39:07;9.10;;;6.83;;
9667;SDS011;4872;48.316;10.650;2023-02-21T07:41:34;9.17;;;6.87;;
9667;SDS011;4872;48.316;10.650;2023-02-21T07:44:01;9.03;;;7.00;;
9667;SDS011;4872;48.316;10.650;2023-02-21T07:46:27;8.97;;;7.03;;
9667;SDS011;4872;48.316;10.650;2023-02-21T07:48:54;8.43;;;6.93;;
9667;SDS011;4872;48.316;10.650;2023-02-21T07:51:21;9.57;;;7.43;;
9667;SDS011;4872;48.316;10.650;2023-02-21T07:53:48;9.10;;;7.03;;
9667;SDS011;4872;48.316;10.650;2023-02-21T07:56:16;7.43;;;6.50;;
9667;SDS011;4872;48.316;10.650;2023-02-21T07:58:43;10.53;;;7.57;;
9667;SDS011;4872;48.316;10.650;2023-02-21T08:01:10;9.10;;;6.43;;
9667;SDS011;4872;48.316;10.650;2023-02-21T08:03:36;8.03;;;6.70;;
9667;SDS011;4872;48.316;10.650;2023-02-21T08:06:04;9.53;;;7.30;;
9667;SDS011;4872;48.316;10.650;2023-02-21T08:08:33;8.40;;;7.00;;
9667;SDS011;4872;48.316;10.650;2023-02-21T08:10:59;8.97;;;7.30;;
9667;SDS011;4872;48.316;10.650;2023-02-21T08:13:28;8.03;;;6.83;;
9667;SDS011;4872;48.316;10.650;2023-02-21T08:15:55;6.77;;;5.97;;
9667;SDS011;4872;48.316;10.650;2023-02-21T08:18:22;7.83;;;6.97;;
9667;SDS011;4872;48.316;10.650;2023-02-21T08:20:49;7.87;;;6.33;;
9667;SDS011;4872;48.316;10.650;2023-02-21T08:23:16;7.50;;;6.63;;
9667;SDS011;4872;48.316;10.650;2023-02-21T08:25:43;8.07;;;6.60;;
9667;SDS011;4872;48.316;10.650;2023-02-21T08:28:10;8.60;;;7.70;;
9667;SDS011;4872;48.316;10.650;2023-02-21T08:30:39;9.53;;;7.77;;
9667;SDS011;4872;48.316;10.650;2023-02-21T08:33:05;8.07;;;6.73;;
9667;SDS011;4872;48.316;10.650;2023-02-21T08:35:32;8.40;;;6.47;;
9667;SDS011;4872;48.316;10.650;2023-02-21T08:37:59;6.63;;;5.90;;
9667;SDS011;4872;48.316;10.650;2023-02-21T08:40:28;7.20;;;5.77;;
9667;SDS011;4872;48.316;10.650;2023-02-21T08:42:56;6.73;;;5.50;;
9667;SDS011;4872;48.316;10.650;2023-02-21T08:45:24;5.90;;;5.30;;
9667;SDS011;4872;48.316;10.650;2023-02-21T08:47:53;6.83;;;5.30;;
9667;SDS011;4872;48.316;10.650;2023-02-21T08:50:21;6.40;;;5.40;;
9667;SDS011;4872;48.316;10.650;2023-02-21T08:52:49;6.90;;;5.40;;
9667;SDS011;4872;48.316;10.650;2023-02-21T08:55:16;6.83;;;5.90;;
9667;SDS011;4872;48.316;10.650;2023-02-21T08:57:44;7.03;;;5.67;;
9667;SDS011;4872;48.316;10.650;2023-02-21T09:00:13;6.43;;;5.33;;
9667;SDS011;4872;48.316;10.650;2023-02-21T09:02:40;8.00;;;6.17;;
9667;SDS011;4872;48.316;10.650;2023-02-21T09:05:09;7.70;;;5.80;;
9667;SDS011;4872;48.316;10.650;2023-02-21T09:07:38;6.90;;;6.20;;
9667;SDS011;4872;48.316;10.650;2023-02-21T09:10:05;6.93;;;5.97;;
9667;SDS011;4872;48.316;10.650;2023-02-21T09:12:34;6.07;;;4.80;;
9667;SDS011;4872;48.316;10.650;2023-02-21T09:15:01;5.70;;;5.20;;
9667;SDS011;4872;48.316;10.650;2023-02-21T09:17:28;7.23;;;5.77;;
9667;SDS011;4872;48.316;10.650;2023-02-21T09:19:57;6.37;;;5.37;;
9667;SDS011;4872;48.316;10.650;2023-02-21T09:22:26;6.47;;;5.80;;
9667;SDS011;4872;48.316;10.650;2023-02-21T09:24:53;6.53;;;5.53;;
9667;SDS011;4872;48.316;10.650;2023-02-21T09:27:19;5.10;;;4.60;;
9667;SDS011;4872;48.316;10.650;2023-02-21T09:30:00;6.93;;;5.33;;
9667;SDS011;4872;48.316;10.650;2023-02-21T09:32:29;6.23;;;5.20;;
9667;SDS011;4872;48.316;10.650;2023-02-21T09:34:56;5.60;;;4.57;;
9667;SDS011;4872;48.316;10.650;2023-02-21T09:37:22;6.27;;;5.20;;
9667;SDS011;4872;48.316;10.650;2023-02-21T09:39:51;5.30;;;4.67;;
9667;SDS011;4872;48.316;10.650;2023-02-21T09:42:18;8.80;;;6.57;;
9667;SDS011;4872;48.316;10.650;2023-02-21T09:44:47;4.77;;;4.37;;
9667;SDS011;4872;48.316;10.650;2023-02-21T09:47:15;4.90;;;4.40;;
9667;SDS011;4872;48.316;10.650;2023-02-21T09:49:48;4.87;;;4.47;;
9667;SDS011;4872;48.316;10.650;2023-02-21T09:52:21;6.83;;;4.70;;
9667;SDS011;4872;48.316;10.650;2023-02-21T09:54:55;5.40;;;3.67;;
9667;SDS011;4872;48.316;10.650;2023-02-21T09:57:25;4.73;;;3.83;;
9667;SDS011;4872;48.316;10.650;2023-02-21T09:59:52;4.63;;;3.37;;
9667;SDS011;4872;48.316;10.650;2023-02-21T10:02:22;4.37;;;3.40;;
9667;SDS011;4872;48.316;10.650;2023-02-21T10:05:08;4.20;;;3.47;;
9667;SDS011;4872;48.316;10.650;2023-02-21T10:07:46;4.33;;;3.73;;
9667;SDS011;4872;48.316;10.650;2023-02-21T10:10:24;9.13;;;4.37;;
9667;SDS011;4872;48.316;10.650;2023-02-21T10:12:58;4.03;;;3.40;;
9667;SDS011;4872;48.316;10.650;2023-02-21T10:15:36;3.70;;;3.10;;
9667;SDS011;4872;48.316;10.650;2023-02-21T10:18:08;3.60;;;3.30;;
9667;SDS011;4872;48.316;10.650;2023-02-21T10:20:47;6.30;;;3.53;;
9667;SDS011;4872;48.316;10.650;2023-02-21T10:23:17;4.87;;;3.60;;
9667;SDS011;4872;48.316;10.650;2023-02-21T10:25:48;3.57;;;3.27;;
9667;SDS011;4872;48.316;10.650;2023-02-21T10:28:20;4.07;;;3.40;;
9667;SDS011;4872;48.316;10.650;2023-02-21T10:30:50;4.07;;;3.47;;
9667;SDS011;4872;48.316;10.650;2023-02-21T10:33:20;4.20;;;3.20;;
9667;SDS011;4872;48.316;10.650;2023-02-21T10:35:46;3.50;;;2.83;;
9667;SDS011;4872;48.316;10.650;2023-02-21T10:38:15;20.13;;;10.17;;
9667;SDS011;4872;48.316;10.650;2023-02-21T10:40:45;5.07;;;3.30;;
9667;SDS011;4872;48.316;10.650;2023-02-21T10:43:18;4.20;;;2.63;;
9667;SDS011;4872;48.316;10.650;2023-02-21T10:45:50;5.13;;;3.20;;
9667;SDS011;4872;48.316;10.650;2023-02-21T10:48:23;3.20;;;2.90;;
9667;SDS011;4872;48.316;10.650;2023-02-21T10:51:03;3.40;;;2.97;;
9667;SDS011;4872;48.316;10.650;2023-02-21T10:53:33;2.87;;;2.50;;
9667;SDS011;4872;48.316;10.650;2023-02-21T10:58:55;6.07;;;2.97;;
9667;SDS011;4872;48.316;10.650;2023-02-21T11:01:32;5.03;;;3.20;;
9667;SDS011;4872;48.316;10.650;2023-02-21T11:04:02;3.87;;;3.07;;
9667;SDS011;4872;48.316;10.650;2023-02-21T11:06:32;3.93;;;3.10;;
9667;SDS011;4872;48.316;10.650;2023-02-21T11:09:00;3.43;;;2.63;;
9667;SDS011;4872;48.316;10.650;2023-02-21T11:11:32;2.80;;;2.50;;
9667;SDS011;4872;48.316;10.650;2023-02-21T11:14:19;4.40;;;2.57;;
9667;SDS011;4872;48.316;10.650;2023-02-21T11:19:42;3.20;;;2.90;;
9667;SDS011;4872;48.316;10.650;2023-02-21T11:22:11;4.07;;;2.90;;
9667;SDS011;4872;48.316;10.650;2023-02-21T11:24:45;5.37;;;2.83;;
9667;SDS011;4872;48.316;10.650;2023-02-21T11:27:16;2.97;;;2.47;;
9667;SDS011;4872;48.316;10.650;2023-02-21T11:29:46;3.53;;;2.67;;
9667;SDS011;4872;48.316;10.650;2023-02-21T11:32:18;2.83;;;2.27;;
9667;SDS011;4872;48.316;10.650;2023-02-21T11:34:50;2.57;;;2.37;;
9667;SDS011;4872;48.316;10.650;2023-02-21T11:37:25;3.20;;;2.53;;
9667;SDS011;4872;48.316;10.650;2023-02-21T11:39:53;2.90;;;2.67;;
9667;SDS011;4872;48.316;10.650;2023-02-21T11:42:24;2.53;;;2.33;;
9667;SDS011;4872;48.316;10.650;2023-02-21T11:45:03;2.53;;;2.10;;
9667;SDS011;4872;48.316;10.650;2023-02-21T11:47:49;3.57;;;2.30;;
9667;SDS011;4872;48.316;10.650;2023-02-21T11:50:23;2.33;;;2.13;;
9667;SDS011;4872;48.316;10.650;2023-02-21T11:52:54;2.47;;;2.10;;
9667;SDS011;4872;48.316;10.650;2023-02-21T11:55:26;2.40;;;2.00;;
9667;SDS011;4872;48.316;10.650;2023-02-21T11:57:59;2.67;;;2.03;;
9667;SDS011;4872;48.316;10.650;2023-02-21T12:00:36;3.33;;;2.47;;
9667;SDS011;4872;48.316;10.650;2023-02-21T12:03:17;3.00;;;2.30;;
9667;SDS011;4872;48.316;10.650;2023-02-21T12:05:56;3.57;;;2.20;;
9667;SDS011;4872;48.316;10.650;2023-02-21T12:08:36;2.60;;;1.90;;
9667;SDS011;4872;48.316;10.650;2023-02-21T12:14:01;2.00;;;1.80;;
9667;SDS011;4872;48.316;10.650;2023-02-21T12:16:39;1.90;;;1.67;;
9667;SDS011;4872;48.316;10.650;2023-02-21T12:19:18;3.03;;;1.30;;
9667;SDS011;4872;48.316;10.650;2023-02-21T12:22:00;1.40;;;1.30;;
9667;SDS011;4872;48.316;10.650;2023-02-21T12:24:36;2.07;;;1.60;;
9667;SDS011;4872;48.316;10.650;2023-02-21T12:27:18;2.00;;;1.30;;
9667;SDS011;4872;48.316;10.650;2023-02-21T12:29:56;1.43;;;1.20;;
9667;SDS011;4872;48.316;10.650;2023-02-21T12:32:47;1.53;;;1.43;;
9667;SDS011;4872;48.316;10.650;2023-02-21T12:35:30;1.50;;;1.40;;
9667;SDS011;4872;48.316;10.650;2023-02-21T12:38:10;4.63;;;1.43;;
9667;SDS011;4872;48.316;10.650;2023-02-21T12:40:45;1.30;;;1.20;;
9667;SDS011;4872;48.316;10.650;2023-02-21T12:43:27;1.87;;;1.30;;
9667;SDS011;4872;48.316;10.650;2023-02-21T12:46:11;1.20;;;1.10;;
9667;SDS011;4872;48.316;10.650;2023-02-21T12:48:48;1.60;;;1.20;;
9667;SDS011;4872;48.316;10.650;2023-02-21T12:51:19;1.42;;;1.20;;
9667;SDS011;4872;48.316;10.650;2023-02-21T12:53:50;1.37;;;1.20;;
9667;SDS011;4872;48.316;10.650;2023-02-21T12:56:22;1.30;;;1.20;;
9667;SDS011;4872;48.316;10.650;2023-02-21T12:58:54;1.37;;;0.90;;
9667;SDS011;4872;48.316;10.650;2023-02-21T13:01:24;1.40;;;1.30;;
9667;SDS011;4872;48.316;10.650;2023-02-21T13:03:59;1.63;;;1.33;;
9667;SDS011;4872;48.316;10.650;2023-02-21T13:06:35;1.50;;;1.37;;
9667;SDS011;4872;48.316;10.650;2023-02-21T13:09:08;2.60;;;1.50;;
9667;SDS011;4872;48.316;10.650;2023-02-21T13:11:40;2.73;;;1.30;;
9667;SDS011;4872;48.316;10.650;2023-02-21T13:14:15;1.77;;;1.47;;
9667;SDS011;4872;48.316;10.650;2023-02-21T13:16:45;2.50;;;1.30;;
9667;SDS011;4872;48.316;10.650;2023-02-21T13:19:14;1.23;;;1.13;;
9667;SDS011;4872;48.316;10.650;2023-02-21T13:21:58;1.37;;;1.27;;
9667;SDS011;4872;48.316;10.650;2023-02-21T13:24:54;1.50;;;1.40;;
9667;SDS011;4872;48.316;10.650;2023-02-21T13:27:40;1.47;;;1.30;;
9667;SDS011;4872;48.316;10.650;2023-02-21T13:30:16;1.77;;;1.67;;
9667;SDS011;4872;48.316;10.650;2023-02-21T13:32:49;3.00;;;1.20;;
9667;SDS011;4872;48.316;10.650;2023-02-21T13:35:20;1.57;;;1.30;;
9667;SDS011;4872;48.316;10.650;2023-02-21T13:37:52;1.57;;;1.30;;
9667;SDS011;4872;48.316;10.650;2023-02-21T13:40:21;1.93;;;1.57;;
9667;SDS011;4872;48.316;10.650;2023-02-21T13:42:57;1.63;;;1.33;;
9667;SDS011;4872;48.316;10.650;2023-02-21T13:45:28;3.27;;;1.20;;
9667;SDS011;4872;48.316;10.650;2023-02-21T13:50:57;1.53;;;1.23;;
9667;SDS011;4872;48.316;10.650;2023-02-21T13:53:26;3.07;;;1.37;;
9667;SDS011;4872;48.316;10.650;2023-02-21T13:56:13;1.40;;;1.23;;
9667;SDS011;4872;48.316;10.650;2023-02-21T13:58:45;2.67;;;1.40;;
9667;SDS011;4872;48.316;10.650;2023-02-21T14:01:20;1.40;;;1.30;;
9667;SDS011;4872;48.316;10.650;2023-02-21T14:07:15;1.97;;;1.20;;
9667;SDS011;4872;48.316;10.650;2023-02-21T14:09:43;2.37;;;1.10;;
9667;SDS011;4872;48.316;10.650;2023-02-21T14:12:11;1.90;;;0.93;;
9667;SDS011;4872;48.316;10.650;2023-02-21T14:14:40;1.27;;;1.17;;
9667;SDS011;4872;48.316;10.650;2023-02-21T14:17:08;2.37;;;1.20;;
9667;SDS011;4872;48.316;10.650;2023-02-21T14:19:40;1.70;;;1.33;;
9667;SDS011;4872;48.316;10.650;2023-02-21T14:22:12;2.00;;;1.20;;
9667;SDS011;4872;48.316;10.650;2023-02-21T14:24:44;1.27;;;1.00;;
9667;SDS011;4872;48.316;10.650;2023-02-21T14:27:30;1.20;;;1.10;;
9667;SDS011;4872;48.316;10.650;2023-02-21T14:33:07;1.40;;;1.10;;
9667;SDS011;4872;48.316;10.650;2023-02-21T14:35:44;1.43;;;1.20;;
9667;SDS011;4872;48.316;10.650;2023-02-21T14:38:17;1.30;;;1.10;;
9667;SDS011;4872;48.316;10.650;2023-02-21T14:40:48;1.50;;;1.00;;
9667;SDS011;4872;48.316;10.650;2023-02-21T14:43:28;1.03;;;0.90;;
9667;SDS011;4872;48.316;10.650;2023-02-21T14:46:14;2.27;;;1.20;;
9667;SDS011;4872;48.316;10.650;2023-02-21T14:49:09;2.00;;;1.33;;
9667;SDS011;4872;48.316;10.650;2023-02-21T14:52:14;1.20;;;1.10;;
9667;SDS011;4872;48.316;10.650;2023-02-21T14:55:16;2.13;;;1.20;;
9667;SDS011;4872;48.316;10.650;2023-02-21T14:58:08;1.47;;;1.37;;
9667;SDS011;4872;48.316;10.650;2023-02-21T15:01:01;1.20;;;1.10;;
9667;SDS011;4872;48.316;10.650;2023-02-21T15:03:34;1.67;;;1.40;;
9667;SDS011;4872;48.316;10.650;2023-02-21T15:06:04;1.30;;;1.20;;
9667;SDS011;4872;48.316;10.650;2023-02-21T15:08:39;1.33;;;1.23;;
9667;SDS011;4872;48.316;10.650;2023-02-21T15:11:18;1.43;;;1.33;;
9667;SDS011;4872;48.316;10.650;2023-02-21T15:13:47;2.00;;;1.40;;
9667;SDS011;4872;48.316;10.650;2023-02-21T15:16:38;1.17;;;1.07;;
9667;SDS011;4872;48.316;10.650;2023-02-21T15:19:17;1.20;;;1.10;;
9667;SDS011;4872;48.316;10.650;2023-02-21T15:21:49;2.03;;;1.23;;
9667;SDS011;4872;48.316;10.650;2023-02-21T15:24:55;1.80;;;1.30;;
9667;SDS011;4872;48.316;10.650;2023-02-21T15:27:28;2.07;;;1.30;;
9667;SDS011;4872;48.316;10.650;2023-02-21T15:30:05;1.60;;;0.90;;
9667;SDS011;4872;48.316;10.650;2023-02-21T15:32:33;1.47;;;1.17;;
9667;SDS011;4872;48.316;10.650;2023-02-21T15:35:02;1.30;;;1.20;;
9667;SDS011;4872;48.316;10.650;2023-02-21T15:37:30;2.07;;;1.20;;
9667;SDS011;4872;48.316;10.650;2023-02-21T15:40:00;1.17;;;1.00;;
9667;SDS011;4872;48.316;10.650;2023-02-21T15:42:37;1.40;;;1.30;;
9667;SDS011;4872;48.316;10.650;2023-02-21T15:45:06;1.30;;;1.10;;
9667;SDS011;4872;48.316;10.650;2023-02-21T15:47:41;1.20;;;1.10;;
9667;SDS011;4872;48.316;10.650;2023-02-21T15:50:09;1.40;;;1.20;;
9667;SDS011;4872;48.316;10.650;2023-02-21T15:52:40;1.13;;;1.03;;
9667;SDS011;4872;48.316;10.650;2023-02-21T15:55:26;2.63;;;1.23;;
9667;SDS011;4872;48.316;10.650;2023-02-21T15:57:59;1.35;;;1.25;;
9667;SDS011;4872;48.316;10.650;2023-02-21T16:00:28;1.40;;;1.30;;
9667;SDS011;4872;48.316;10.650;2023-02-21T16:05:52;1.70;;;1.15;;
9667;SDS011;4872;48.316;10.650;2023-02-21T16:08:20;2.33;;;1.20;;
9667;SDS011;4872;48.316;10.650;2023-02-21T16:10:47;1.25;;;1.13;;
9667;SDS011;4872;48.316;10.650;2023-02-21T16:13:16;1.73;;;1.33;;
9667;SDS011;4872;48.316;10.650;2023-02-21T16:15:43;2.65;;;1.10;;
9667;SDS011;4872;48.316;10.650;2023-02-21T16:18:10;1.63;;;1.40;;
9667;SDS011;4872;48.316;10.650;2023-02-21T16:20:43;1.55;;;1.20;;
9667;SDS011;4872;48.316;10.650;2023-02-21T16:23:12;4.95;;;2.13;;
9667;SDS011;4872;48.316;10.650;2023-02-21T16:25:53;20.43;;;11.73;;
9667;SDS011;4872;48.316;10.650;2023-02-21T16:28:23;8.40;;;5.00;;
9667;SDS011;4872;48.316;10.650;2023-02-21T16:30:50;5.23;;;3.10;;
9667;SDS011;4872;48.316;10.650;2023-02-21T16:33:19;2.67;;;2.37;;
9667;SDS011;4872;48.316;10.650;2023-02-21T16:35:46;3.07;;;1.97;;
9667;SDS011;4872;48.316;10.650;2023-02-21T16:38:14;4.60;;;2.00;;
9667;SDS011;4872;48.316;10.650;2023-02-21T16:40:42;4.93;;;2.53;;
9667;SDS011;4872;48.316;10.650;2023-02-21T16:43:14;6.40;;;4.33;;
9667;SDS011;4872;48.316;10.650;2023-02-21T16:45:43;10.03;;;5.67;;
9667;SDS011;4872;48.316;10.650;2023-02-21T16:48:14;9.67;;;5.97;;
9667;SDS011;4872;48.316;10.650;2023-02-21T16:50:45;9.33;;;5.70;;
9667;SDS011;4872;48.316;10.650;2023-02-21T16:53:13;6.23;;;3.83;;
9667;SDS011;4872;48.316;10.650;2023-02-21T16:55:41;4.37;;;2.77;;
9667;SDS011;4872;48.316;10.650;2023-02-21T16:58:15;3.80;;;2.80;;
9667;SDS011;4872;48.316;10.650;2023-02-21T17:00:49;4.00;;;2.17;;
9667;SDS011;4872;48.316;10.650;2023-02-21T17:03:16;2.40;;;1.83;;
9667;SDS011;4872;48.316;10.650;2023-02-21T17:05:43;3.07;;;1.53;;
9667;SDS011;4872;48.316;10.650;2023-02-21T17:08:10;1.67;;;1.53;;
9667;SDS011;4872;48.316;10.650;2023-02-21T17:10:37;2.70;;;1.60;;
9667;SDS011;4872;48.316;10.650;2023-02-21T17:13:04;1.60;;;1.40;;
9667;SDS011;4872;48.316;10.650;2023-02-21T17:15:31;2.30;;;1.80;;
9667;SDS011;4872;48.316;10.650;2023-02-21T17:17:59;5.03;;;2.40;;
9667;SDS011;4872;48.316;10.650;2023-02-21T17:20:27;3.20;;;2.90;;
9667;SDS011;4872;48.316;10.650;2023-02-21T17:22:54;2.10;;;2.00;;
9667;SDS011;4872;48.316;10.650;2023-02-21T17:25:23;3.30;;;2.57;;
9667;SDS011;4872;48.316;10.650;2023-02-21T17:27:50;2.10;;;1.90;;
9667;SDS011;4872;48.316;10.650;2023-02-21T17:30:18;3.80;;;2.07;;
9667;SDS011;4872;48.316;10.650;2023-02-21T17:32:46;3.97;;;3.43;;
9667;SDS011;4872;48.316;10.650;2023-02-21T17:35:15;3.80;;;3.17;;
9667;SDS011;4872;48.316;10.650;2023-02-21T17:37:43;6.97;;;3.73;;
9667;SDS011;4872;48.316;10.650;2023-02-21T17:40:11;4.27;;;3.53;;
9667;SDS011;4872;48.316;10.650;2023-02-21T17:42:39;4.83;;;4.43;;
9667;SDS011;4872;48.316;10.650;2023-02-21T17:45:06;5.07;;;3.70;;
9667;SDS011;4872;48.316;10.650;2023-02-21T17:47:34;8.03;;;5.17;;
9667;SDS011;4872;48.316;10.650;2023-02-21T17:50:01;11.70;;;8.67;;
9667;SDS011;4872;48.316;10.650;2023-02-21T17:52:30;11.00;;;8.03;;
9667;SDS011;4872;48.316;10.650;2023-02-21T17:54:57;15.27;;;12.83;;
9667;SDS011;4872;48.316;10.650;2023-02-21T17:57:26;13.20;;;9.47;;
9667;SDS011;4872;48.316;10.650;2023-02-21T17:59:59;14.60;;;11.20;;
9667;SDS011;4872;48.316;10.650;2023-02-21T18:02:25;17.07;;;13.47;;
9667;SDS011;4872;48.316;10.650;2023-02-21T18:04:52;13.40;;;10.30;;
9667;SDS011;4872;48.316;10.650;2023-02-21T18:07:19;32.47;;;27.17;;
9667;SDS011;4872;48.316;10.650;2023-02-21T18:09:48;45.53;;;41.03;;
9667;SDS011;4872;48.316;10.650;2023-02-21T18:12:14;12.13;;;9.03;;
9667;SDS011;4872;48.316;10.650;2023-02-21T18:14:41;9.17;;;7.83;;
9667;SDS011;4872;48.316;10.650;2023-02-21T18:17:08;8.13;;;5.80;;
9667;SDS011;4872;48.316;10.650;2023-02-21T18:19:35;9.83;;;6.60;;
9667;SDS011;4872;48.316;10.650;2023-02-21T18:22:01;9.87;;;7.53;;
9667;SDS011;4872;48.316;10.650;2023-02-21T18:24:30;9.70;;;6.50;;
9667;SDS011;4872;48.316;10.650;2023-02-21T18:26:58;7.97;;;6.57;;
9667;SDS011;4872;48.316;10.650;2023-02-21T18:29:25;8.33;;;7.30;;
9667;SDS011;4872;48.316;10.650;2023-02-21T18:31:52;6.53;;;5.73;;
9667;SDS011;4872;48.316;10.650;2023-02-21T18:34:19;9.57;;;6.53;;
9667;SDS011;4872;48.316;10.650;2023-02-21T18:36:47;9.00;;;6.70;;
9667;SDS011;4872;48.316;10.650;2023-02-21T18:39:14;8.93;;;5.87;;
9667;SDS011;4872;48.316;10.650;2023-02-21T18:41:41;12.67;;;9.93;;
9667;SDS011;4872;48.316;10.650;2023-02-21T18:44:18;12.93;;;10.30;;
9667;SDS011;4872;48.316;10.650;2023-02-21T18:46:49;14.50;;;9.73;;
9667;SDS011;4872;48.316;10.650;2023-02-21T18:49:26;10.73;;;7.77;;
9667;SDS011;4872;48.316;10.650;2023-02-21T18:51:56;10.97;;;8.37;;
9667;SDS011;4872;48.316;10.650;2023-02-21T18:54:27;12.13;;;9.30;;
9667;SDS011;4872;48.316;10.650;2023-02-21T18:56:54;13.47;;;9.83;;
9667;SDS011;4872;48.316;10.650;2023-02-21T18:59:24;10.63;;;8.03;;
9667;SDS011;4872;48.316;10.650;2023-02-21T19:01:52;8.37;;;7.57;;
9667;SDS011;4872;48.316;10.650;2023-02-21T19:04:20;6.03;;;5.17;;
9667;SDS011;4872;48.316;10.650;2023-02-21T19:06:47;8.83;;;5.37;;
9667;SDS011;4872;48.316;10.650;2023-02-21T19:09:14;4.87;;;3.57;;
9667;SDS011;4872;48.316;10.650;2023-02-21T19:11:40;5.97;;;3.53;;
9667;SDS011;4872;48.316;10.650;2023-02-21T19:14:07;3.57;;;3.13;;
9667;SDS011;4872;48.316;10.650;2023-02-21T19:16:36;4.77;;;3.70;;
9667;SDS011;4872;48.316;10.650;2023-02-21T19:19:03;4.10;;;3.70;;
9667;SDS011;4872;48.316;10.650;2023-02-21T19:21:30;4.70;;;3.00;;
9667;SDS011;4872;48.316;10.650;2023-02-21T19:23:57;4.67;;;3.63;;
9667;SDS011;4872;48.316;10.650;2023-02-21T19:26:26;4.23;;;3.50;;
9667;SDS011;4872;48.316;10.650;2023-02-21T19:28:53;8.80;;;7.27;;
9667;SDS011;4872;48.316;10.650;2023-02-21T19:31:20;5.23;;;4.50;;
9667;SDS011;4872;48.316;10.650;2023-02-21T19:33:48;15.30;;;12.03;;
9667;SDS011;4872;48.316;10.650;2023-02-21T19:36:14;7.60;;;6.50;;
9667;SDS011;4872;48.316;10.650;2023-02-21T19:38:41;11.10;;;8.60;;
9667;SDS011;4872;48.316;10.650;2023-02-21T19:41:08;9.43;;;6.47;;
9667;SDS011;4872;48.316;10.650;2023-02-21T19:43:35;7.90;;;6.37;;
9667;SDS011;4872;48.316;10.650;2023-02-21T19:46:02;10.10;;;7.23;;
9667;SDS011;4872;48.316;10.650;2023-02-21T19:48:29;7.67;;;6.33;;
9667;SDS011;4872;48.316;10.650;2023-02-21T19:50:57;10.10;;;7.03;;
9667;SDS011;4872;48.316;10.650;2023-02-21T19:53:24;10.27;;;8.70;;
9667;SDS011;4872;48.316;10.650;2023-02-21T19:55:50;12.10;;;9.27;;
9667;SDS011;4872;48.316;10.650;2023-02-21T19:58:17;18.27;;;12.90;;
9667;SDS011;4872;48.316;10.650;2023-02-21T20:00:44;11.03;;;7.83;;
9667;SDS011;4872;48.316;10.650;2023-02-21T20:03:11;7.20;;;5.07;;
9667;SDS011;4872;48.316;10.650;2023-02-21T20:05:38;10.50;;;7.80;;
9667;SDS011;4872;48.316;10.650;2023-02-21T20:08:06;9.33;;;8.33;;
9667;SDS011;4872;48.316;10.650;2023-02-21T20:10:32;11.90;;;10.60;;
9667;SDS011;4872;48.316;10.650;2023-02-21T20:12:59;14.63;;;10.60;;
9667;SDS011;4872;48.316;10.650;2023-02-21T20:15:30;52.27;;;38.30;;
9667;SDS011;4872;48.316;10.650;2023-02-21T20:17:58;13.67;;;10.57;;
9667;SDS011;4872;48.316;10.650;2023-02-21T20:20:26;12.73;;;6.50;;
9667;SDS011;4872;48.316;10.650;2023-02-21T20:22:53;7.50;;;6.53;;
9667;SDS011;4872;48.316;10.650;2023-02-21T20:25:23;10.57;;;6.73;;
9667;SDS011;4872;48.316;10.650;2023-02-21T20:27:50;6.53;;;5.67;;
9667;SDS011;4872;48.316;10.650;2023-02-21T20:30:16;8.10;;;6.27;;
9667;SDS011;4872;48.316;10.650;2023-02-21T20:32:43;7.23;;;5.60;;
9667;SDS011;4872;48.316;10.650;2023-02-21T20:35:10;9.27;;;7.20;;
9667;SDS011;4872;48.316;10.650;2023-02-21T20:37:37;8.40;;;6.67;;
9667;SDS011;4872;48.316;10.650;2023-02-21T20:40:04;10.63;;;6.90;;
9667;SDS011;4872;48.316;10.650;2023-02-21T20:42:36;10.53;;;7.30;;
9667;SDS011;4872;48.316;10.650;2023-02-21T20:45:03;14.67;;;11.63;;